sensor_id;sensor_type;location;lat;lon;timestamp;P1;durP1;ratioP1;P2;durP2;ratioP2
11042;SDS011;5574;48.786;10.120;2023-11-19T00:02:19;5.10;;;4.70;;
11042;SDS011;5574;48.786;10.120;2023-11-19T00:04:46;4.83;;;4.43;;
11042;SDS011;5574;48.786;10.120;2023-11-19T00:07:13;4.83;;;4.43;;
11042;SDS011;5574;48.786;10.120;2023-11-19T00:09:40;4.20;;;3.90;;
11042;SDS011;5574;48.786;10.120;2023-11-19T00:12:08;5.10;;;4.70;;
11042;SDS011;5574;48.786;10.120;2023-11-19T00:14:35;5.60;;;5.10;;
11042;SDS011;5574;48.786;10.120;2023-11-19T00:17:03;5.53;;;5.00;;
11042;SDS011;5574;48.786;10.120;2023-11-19T00:19:30;6.00;;;5.40;;
11042;SDS011;5574;48.786;10.120;2023-11-19T00:21:57;5.93;;;5.33;;
11042;SDS011;5574;48.786;10.120;2023-11-19T00:24:27;5.03;;;4.63;;
11042;SDS011;5574;48.786;10.120;2023-11-19T00:26:54;6.23;;;5.53;;
11042;SDS011;5574;48.786;10.120;2023-11-19T00:29:21;4.77;;;4.37;;
11042;SDS011;5574;48.786;10.120;2023-11-19T00:31:48;5.40;;;4.90;;
11042;SDS011;5574;48.786;10.120;2023-11-19T00:34:16;5.27;;;4.80;;
11042;SDS011;5574;48.786;10.120;2023-11-19T00:36:46;5.60;;;5.10;;
11042;SDS011;5574;48.786;10.120;2023-11-19T00:39:13;5.90;;;5.40;;
11042;SDS011;5574;48.786;10.120;2023-11-19T00:41:40;6.23;;;5.70;;
11042;SDS011;5574;48.786;10.120;2023-11-19T00:44:07;5.87;;;5.27;;
11042;SDS011;5574;48.786;10.120;2023-11-19T00:46:34;6.03;;;5.43;;
11042;SDS011;5574;48.786;10.120;2023-11-19T00:49:00;6.00;;;5.47;;
11042;SDS011;5574;48.786;10.120;2023-11-19T00:51:29;6.60;;;5.90;;
11042;SDS011;5574;48.786;10.120;2023-11-19T00:53:57;7.07;;;5.40;;
11042;SDS011;5574;48.786;10.120;2023-11-19T00:56:24;5.90;;;5.40;;
11042;SDS011;5574;48.786;10.120;2023-11-19T00:58:50;5.97;;;5.37;;
11042;SDS011;5574;48.786;10.120;2023-11-19T01:01:17;2.90;;;2.70;;
11042;SDS011;5574;48.786;10.120;2023-11-19T01:03:44;3.30;;;3.10;;
11042;SDS011;5574;48.786;10.120;2023-11-19T01:06:10;3.33;;;3.13;;
11042;SDS011;5574;48.786;10.120;2023-11-19T01:08:40;3.63;;;3.33;;
11042;SDS011;5574;48.786;10.120;2023-11-19T01:11:08;3.53;;;3.23;;
11042;SDS011;5574;48.786;10.120;2023-11-19T01:13:35;3.77;;;3.47;;
11042;SDS011;5574;48.786;10.120;2023-11-19T01:16:02;3.17;;;2.97;;
11042;SDS011;5574;48.786;10.120;2023-11-19T01:18:29;3.40;;;3.17;;
11042;SDS011;5574;48.786;10.120;2023-11-19T01:20:55;3.30;;;2.90;;
11042;SDS011;5574;48.786;10.120;2023-11-19T01:23:22;3.23;;;3.03;;
11042;SDS011;5574;48.786;10.120;2023-11-19T01:25:50;2.97;;;2.77;;
11042;SDS011;5574;48.786;10.120;2023-11-19T01:28:17;2.90;;;2.70;;
11042;SDS011;5574;48.786;10.120;2023-11-19T01:30:44;3.27;;;2.97;;
11042;SDS011;5574;48.786;10.120;2023-11-19T01:33:10;3.10;;;2.90;;
11042;SDS011;5574;48.786;10.120;2023-11-19T01:35:37;3.10;;;2.90;;
11042;SDS011;5574;48.786;10.120;2023-11-19T01:38:04;3.57;;;3.27;;
11042;SDS011;5574;48.786;10.120;2023-11-19T01:40:33;2.90;;;2.70;;
11042;SDS011;5574;48.786;10.120;2023-11-19T01:43:03;2.73;;;2.53;;
11042;SDS011;5574;48.786;10.120;2023-11-19T01:45:30;2.53;;;2.33;;
11042;SDS011;5574;48.786;10.120;2023-11-19T01:47:58;2.70;;;2.50;;
11042;SDS011;5574;48.786;10.120;2023-11-19T01:50:26;3.00;;;2.70;;
11042;SDS011;5574;48.786;10.120;2023-11-19T01:52:54;2.97;;;2.77;;
11042;SDS011;5574;48.786;10.120;2023-11-19T01:55:22;2.67;;;2.47;;
11042;SDS011;5574;48.786;10.120;2023-11-19T01:57:52;2.70;;;2.50;;
11042;SDS011;5574;48.786;10.120;2023-11-19T02:00:22;2.87;;;2.67;;
11042;SDS011;5574;48.786;10.120;2023-11-19T02:02:50;2.90;;;2.70;;
11042;SDS011;5574;48.786;10.120;2023-11-19T02:05:19;2.90;;;2.70;;
11042;SDS011;5574;48.786;10.120;2023-11-19T02:07:46;2.63;;;2.43;;
11042;SDS011;5574;48.786;10.120;2023-11-19T02:10:15;3.20;;;2.90;;
11042;SDS011;5574;48.786;10.120;2023-11-19T02:12:44;3.10;;;2.73;;
11042;SDS011;5574;48.786;10.120;2023-11-19T02:15:11;3.20;;;2.93;;
11042;SDS011;5574;48.786;10.120;2023-11-19T02:17:39;3.77;;;3.47;;
11042;SDS011;5574;48.786;10.120;2023-11-19T02:20:06;3.93;;;3.60;;
11042;SDS011;5574;48.786;10.120;2023-11-19T02:22:37;4.43;;;3.53;;
11042;SDS011;5574;48.786;10.120;2023-11-19T02:25:04;3.27;;;3.07;;
11042;SDS011;5574;48.786;10.120;2023-11-19T02:27:42;3.60;;;3.30;;
11042;SDS011;5574;48.786;10.120;2023-11-19T02:30:12;3.50;;;3.20;;
11042;SDS011;5574;48.786;10.120;2023-11-19T02:32:40;3.40;;;3.10;;
11042;SDS011;5574;48.786;10.120;2023-11-19T02:35:07;3.37;;;3.17;;
11042;SDS011;5574;48.786;10.120;2023-11-19T02:37:34;3.30;;;3.03;;
11042;SDS011;5574;48.786;10.120;2023-11-19T02:40:01;2.47;;;2.37;;
11042;SDS011;5574;48.786;10.120;2023-11-19T02:42:30;2.83;;;2.63;;
11042;SDS011;5574;48.786;10.120;2023-11-19T02:44:58;2.93;;;2.73;;
11042;SDS011;5574;48.786;10.120;2023-11-19T02:47:24;2.73;;;2.53;;
11042;SDS011;5574;48.786;10.120;2023-11-19T02:49:52;2.57;;;2.43;;
11042;SDS011;5574;48.786;10.120;2023-11-19T02:52:19;2.90;;;2.70;;
11042;SDS011;5574;48.786;10.120;2023-11-19T02:54:46;1.70;;;1.60;;
11042;SDS011;5574;48.786;10.120;2023-11-19T02:57:12;1.60;;;1.50;;
11042;SDS011;5574;48.786;10.120;2023-11-19T02:59:39;1.70;;;1.60;;
11042;SDS011;5574;48.786;10.120;2023-11-19T03:02:09;1.37;;;1.27;;
11042;SDS011;5574;48.786;10.120;2023-11-19T03:04:36;0.77;;;0.70;;
11042;SDS011;5574;48.786;10.120;2023-11-19T03:07:04;0.97;;;0.47;;
11042;SDS011;5574;48.786;10.120;2023-11-19T03:09:32;0.73;;;0.50;;
11042;SDS011;5574;48.786;10.120;2023-11-19T03:12:00;0.73;;;0.20;;
11042;SDS011;5574;48.786;10.120;2023-11-19T03:14:27;0.50;;;0.20;;
11042;SDS011;5574;48.786;10.120;2023-11-19T03:16:54;0.30;;;0.30;;
11042;SDS011;5574;48.786;10.120;2023-11-19T03:19:22;0.20;;;0.20;;
11042;SDS011;5574;48.786;10.120;2023-11-19T03:21:48;0.20;;;0.20;;
11042;SDS011;5574;48.786;10.120;2023-11-19T03:24:15;0.40;;;0.40;;
11042;SDS011;5574;48.786;10.120;2023-11-19T03:26:42;0.17;;;0.17;;
11042;SDS011;5574;48.786;10.120;2023-11-19T03:29:08;1.60;;;0.30;;
11042;SDS011;5574;48.786;10.120;2023-11-19T03:31:35;0.20;;;0.20;;
11042;SDS011;5574;48.786;10.120;2023-11-19T03:34:03;0.87;;;0.20;;
11042;SDS011;5574;48.786;10.120;2023-11-19T03:36:34;1.00;;;0.20;;
11042;SDS011;5574;48.786;10.120;2023-11-19T03:39:01;0.10;;;0.10;;
11042;SDS011;5574;48.786;10.120;2023-11-19T03:41:28;0.30;;;0.30;;
11042;SDS011;5574;48.786;10.120;2023-11-19T03:43:54;0.50;;;0.50;;
11042;SDS011;5574;48.786;10.120;2023-11-19T03:46:21;0.83;;;0.60;;
11042;SDS011;5574;48.786;10.120;2023-11-19T03:48:48;0.20;;;0.17;;
11042;SDS011;5574;48.786;10.120;2023-11-19T03:51:16;0.20;;;0.20;;
11042;SDS011;5574;48.786;10.120;2023-11-19T03:53:44;0.33;;;0.10;;
11042;SDS011;5574;48.786;10.120;2023-11-19T03:56:11;0.10;;;0.10;;
11042;SDS011;5574;48.786;10.120;2023-11-19T03:58:39;2.10;;;0.30;;
11042;SDS011;5574;48.786;10.120;2023-11-19T04:01:05;0.10;;;0.10;;
11042;SDS011;5574;48.786;10.120;2023-11-19T04:03:32;0.20;;;0.20;;
11042;SDS011;5574;48.786;10.120;2023-11-19T04:05:58;0.40;;;0.00;;
11042;SDS011;5574;48.786;10.120;2023-11-19T04:08:25;0.20;;;0.20;;
11042;SDS011;5574;48.786;10.120;2023-11-19T04:10:53;1.20;;;0.10;;
11042;SDS011;5574;48.786;10.120;2023-11-19T04:13:20;0.10;;;0.10;;
11042;SDS011;5574;48.786;10.120;2023-11-19T04:15:47;0.23;;;0.10;;
11042;SDS011;5574;48.786;10.120;2023-11-19T04:18:15;0.10;;;0.10;;
11042;SDS011;5574;48.786;10.120;2023-11-19T04:20:42;0.10;;;0.10;;
11042;SDS011;5574;48.786;10.120;2023-11-19T04:23:08;0.17;;;0.10;;
11042;SDS011;5574;48.786;10.120;2023-11-19T04:25:36;0.10;;;0.10;;
11042;SDS011;5574;48.786;10.120;2023-11-19T04:28:04;0.00;;;0.00;;
11042;SDS011;5574;48.786;10.120;2023-11-19T04:30:31;0.13;;;0.10;;
11042;SDS011;5574;48.786;10.120;2023-11-19T04:32:58;0.00;;;0.00;;
11042;SDS011;5574;48.786;10.120;2023-11-19T04:35:25;1.20;;;0.10;;
11042;SDS011;5574;48.786;10.120;2023-11-19T04:37:51;0.10;;;0.10;;
11042;SDS011;5574;48.786;10.120;2023-11-19T04:40:18;0.00;;;0.00;;
11042;SDS011;5574;48.786;10.120;2023-11-19T04:42:47;0.03;;;0.03;;
11042;SDS011;5574;48.786;10.120;2023-11-19T04:45:15;0.57;;;0.10;;
11042;SDS011;5574;48.786;10.120;2023-11-19T04:47:42;0.00;;;0.00;;
11042;SDS011;5574;48.786;10.120;2023-11-19T04:50:09;0.40;;;0.10;;
11042;SDS011;5574;48.786;10.120;2023-11-19T04:52:37;0.00;;;0.00;;
11042;SDS011;5574;48.786;10.120;2023-11-19T04:55:05;0.10;;;0.10;;
11042;SDS011;5574;48.786;10.120;2023-11-19T04:57:32;0.10;;;0.10;;
11042;SDS011;5574;48.786;10.120;2023-11-19T04:59:59;0.17;;;0.10;;
11042;SDS011;5574;48.786;10.120;2023-11-19T05:02:27;0.27;;;0.27;;
11042;SDS011;5574;48.786;10.120;2023-11-19T05:04:54;0.30;;;0.30;;
11042;SDS011;5574;48.786;10.120;2023-11-19T05:07:20;0.83;;;0.10;;
11042;SDS011;5574;48.786;10.120;2023-11-19T05:09:47;0.27;;;0.20;;
11042;SDS011;5574;48.786;10.120;2023-11-19T05:12:14;0.60;;;0.40;;
11042;SDS011;5574;48.786;10.120;2023-11-19T05:14:40;0.40;;;0.20;;
11042;SDS011;5574;48.786;10.120;2023-11-19T05:17:13;0.10;;;0.10;;
11042;SDS011;5574;48.786;10.120;2023-11-19T05:19:41;1.13;;;0.10;;
11042;SDS011;5574;48.786;10.120;2023-11-19T05:22:08;0.10;;;0.10;;
11042;SDS011;5574;48.786;10.120;2023-11-19T05:24:34;0.30;;;0.30;;
11042;SDS011;5574;48.786;10.120;2023-11-19T05:27:01;0.83;;;0.33;;
11042;SDS011;5574;48.786;10.120;2023-11-19T05:29:28;0.10;;;0.10;;
11042;SDS011;5574;48.786;10.120;2023-11-19T05:31:55;0.10;;;0.10;;
11042;SDS011;5574;48.786;10.120;2023-11-19T05:34:21;0.30;;;0.30;;
11042;SDS011;5574;48.786;10.120;2023-11-19T05:36:49;0.20;;;0.20;;
11042;SDS011;5574;48.786;10.120;2023-11-19T05:39:16;0.13;;;0.00;;
11042;SDS011;5574;48.786;10.120;2023-11-19T05:41:43;0.17;;;0.17;;
11042;SDS011;5574;48.786;10.120;2023-11-19T05:44:10;0.10;;;0.10;;
11042;SDS011;5574;48.786;10.120;2023-11-19T05:46:36;0.10;;;0.10;;
11042;SDS011;5574;48.786;10.120;2023-11-19T05:49:07;0.20;;;0.20;;
11042;SDS011;5574;48.786;10.120;2023-11-19T05:51:36;0.20;;;0.20;;
11042;SDS011;5574;48.786;10.120;2023-11-19T05:54:05;0.07;;;0.07;;
11042;SDS011;5574;48.786;10.120;2023-11-19T05:56:32;0.10;;;0.10;;
11042;SDS011;5574;48.786;10.120;2023-11-19T05:58:59;0.30;;;0.20;;
11042;SDS011;5574;48.786;10.120;2023-11-19T06:01:28;1.20;;;0.20;;
11042;SDS011;5574;48.786;10.120;2023-11-19T06:03:55;0.10;;;0.10;;
11042;SDS011;5574;48.786;10.120;2023-11-19T06:06:22;0.77;;;0.10;;
11042;SDS011;5574;48.786;10.120;2023-11-19T06:08:49;0.17;;;0.17;;
11042;SDS011;5574;48.786;10.120;2023-11-19T06:11:17;0.50;;;0.30;;
11042;SDS011;5574;48.786;10.120;2023-11-19T06:13:45;0.53;;;0.50;;
11042;SDS011;5574;48.786;10.120;2023-11-19T06:16:16;0.30;;;0.30;;
11042;SDS011;5574;48.786;10.120;2023-11-19T06:18:42;0.60;;;0.40;;
11042;SDS011;5574;48.786;10.120;2023-11-19T06:21:09;0.80;;;0.73;;
11042;SDS011;5574;48.786;10.120;2023-11-19T06:23:36;0.70;;;0.70;;
11042;SDS011;5574;48.786;10.120;2023-11-19T06:26:03;0.67;;;0.60;;
11042;SDS011;5574;48.786;10.120;2023-11-19T06:28:32;0.60;;;0.60;;
11042;SDS011;5574;48.786;10.120;2023-11-19T06:30:58;0.20;;;0.20;;
11042;SDS011;5574;48.786;10.120;2023-11-19T06:33:25;0.60;;;0.60;;
11042;SDS011;5574;48.786;10.120;2023-11-19T06:35:52;1.37;;;1.27;;
11042;SDS011;5574;48.786;10.120;2023-11-19T06:38:19;0.90;;;0.90;;
11042;SDS011;5574;48.786;10.120;2023-11-19T06:40:46;1.07;;;1.07;;
11042;SDS011;5574;48.786;10.120;2023-11-19T06:43:13;1.13;;;1.00;;
11042;SDS011;5574;48.786;10.120;2023-11-19T06:45:41;2.20;;;2.00;;
11042;SDS011;5574;48.786;10.120;2023-11-19T06:48:08;1.57;;;1.40;;
11042;SDS011;5574;48.786;10.120;2023-11-19T06:50:35;1.30;;;1.20;;
11042;SDS011;5574;48.786;10.120;2023-11-19T06:53:02;2.83;;;2.33;;
11042;SDS011;5574;48.786;10.120;2023-11-19T06:55:30;4.53;;;4.00;;
11042;SDS011;5574;48.786;10.120;2023-11-19T06:57:57;2.43;;;2.13;;
11042;SDS011;5574;48.786;10.120;2023-11-19T07:00:25;2.80;;;2.60;;
11042;SDS011;5574;48.786;10.120;2023-11-19T07:02:53;2.00;;;0.90;;
11042;SDS011;5574;48.786;10.120;2023-11-19T07:05:20;2.63;;;1.90;;
11042;SDS011;5574;48.786;10.120;2023-11-19T07:07:48;0.60;;;0.60;;
11042;SDS011;5574;48.786;10.120;2023-11-19T07:10:15;2.20;;;2.10;;
11042;SDS011;5574;48.786;10.120;2023-11-19T07:12:42;1.10;;;1.10;;
11042;SDS011;5574;48.786;10.120;2023-11-19T07:15:09;1.47;;;1.00;;
11042;SDS011;5574;48.786;10.120;2023-11-19T07:17:38;1.03;;;0.90;;
11042;SDS011;5574;48.786;10.120;2023-11-19T07:20:07;0.40;;;0.40;;
11042;SDS011;5574;48.786;10.120;2023-11-19T07:22:40;0.77;;;0.77;;
11042;SDS011;5574;48.786;10.120;2023-11-19T07:25:10;1.27;;;1.00;;
11042;SDS011;5574;48.786;10.120;2023-11-19T07:27:38;1.63;;;1.10;;
11042;SDS011;5574;48.786;10.120;2023-11-19T07:30:05;0.40;;;0.37;;
11042;SDS011;5574;48.786;10.120;2023-11-19T07:32:33;0.70;;;0.70;;
11042;SDS011;5574;48.786;10.120;2023-11-19T07:34:59;1.87;;;1.33;;
11042;SDS011;5574;48.786;10.120;2023-11-19T07:37:28;4.80;;;4.50;;
11042;SDS011;5574;48.786;10.120;2023-11-19T07:39:54;2.30;;;1.90;;
11042;SDS011;5574;48.786;10.120;2023-11-19T07:42:21;2.03;;;1.83;;
11042;SDS011;5574;48.786;10.120;2023-11-19T07:44:48;0.43;;;0.43;;
11042;SDS011;5574;48.786;10.120;2023-11-19T07:47:15;1.73;;;1.63;;
11042;SDS011;5574;48.786;10.120;2023-11-19T07:49:42;0.67;;;0.33;;
11042;SDS011;5574;48.786;10.120;2023-11-19T07:52:09;0.20;;;0.20;;
11042;SDS011;5574;48.786;10.120;2023-11-19T07:54:38;0.00;;;0.00;;
11042;SDS011;5574;48.786;10.120;2023-11-19T07:57:04;0.43;;;0.20;;
11042;SDS011;5574;48.786;10.120;2023-11-19T07:59:31;0.10;;;0.10;;
11042;SDS011;5574;48.786;10.120;2023-11-19T08:01:58;0.37;;;0.10;;
11042;SDS011;5574;48.786;10.120;2023-11-19T08:04:24;0.17;;;0.10;;
11042;SDS011;5574;48.786;10.120;2023-11-19T08:06:51;0.00;;;0.00;;
11042;SDS011;5574;48.786;10.120;2023-11-19T08:09:17;0.10;;;0.10;;
11042;SDS011;5574;48.786;10.120;2023-11-19T08:11:45;0.10;;;0.10;;
11042;SDS011;5574;48.786;10.120;2023-11-19T08:14:12;0.20;;;0.20;;
11042;SDS011;5574;48.786;10.120;2023-11-19T08:16:39;0.53;;;0.10;;
11042;SDS011;5574;48.786;10.120;2023-11-19T08:19:06;0.17;;;0.17;;
11042;SDS011;5574;48.786;10.120;2023-11-19T08:21:33;0.07;;;0.07;;
11042;SDS011;5574;48.786;10.120;2023-11-19T08:24:00;1.43;;;0.70;;
11042;SDS011;5574;48.786;10.120;2023-11-19T08:26:26;0.50;;;0.30;;
11042;SDS011;5574;48.786;10.120;2023-11-19T08:28:54;0.93;;;0.17;;
11042;SDS011;5574;48.786;10.120;2023-11-19T08:31:24;0.30;;;0.10;;
11042;SDS011;5574;48.786;10.120;2023-11-19T08:33:50;0.60;;;0.23;;
11042;SDS011;5574;48.786;10.120;2023-11-19T08:36:17;0.73;;;0.40;;
11042;SDS011;5574;48.786;10.120;2023-11-19T08:38:44;1.13;;;1.00;;
11042;SDS011;5574;48.786;10.120;2023-11-19T08:41:11;0.73;;;0.13;;
11042;SDS011;5574;48.786;10.120;2023-11-19T08:43:37;0.40;;;0.30;;
11042;SDS011;5574;48.786;10.120;2023-11-19T08:46:10;1.40;;;0.20;;
11042;SDS011;5574;48.786;10.120;2023-11-19T08:48:37;0.20;;;0.20;;
11042;SDS011;5574;48.786;10.120;2023-11-19T08:51:03;0.50;;;0.20;;
11042;SDS011;5574;48.786;10.120;2023-11-19T08:53:31;0.30;;;0.20;;
11042;SDS011;5574;48.786;10.120;2023-11-19T08:55:58;0.17;;;0.17;;
11042;SDS011;5574;48.786;10.120;2023-11-19T08:58:25;0.30;;;0.27;;
11042;SDS011;5574;48.786;10.120;2023-11-19T09:00:52;0.20;;;0.20;;
11042;SDS011;5574;48.786;10.120;2023-11-19T09:03:20;1.77;;;0.40;;
11042;SDS011;5574;48.786;10.120;2023-11-19T09:05:47;0.17;;;0.17;;
11042;SDS011;5574;48.786;10.120;2023-11-19T09:08:13;1.17;;;0.53;;
11042;SDS011;5574;48.786;10.120;2023-11-19T09:10:40;2.63;;;0.63;;
11042;SDS011;5574;48.786;10.120;2023-11-19T09:13:06;0.30;;;0.20;;
11042;SDS011;5574;48.786;10.120;2023-11-19T09:15:33;0.33;;;0.30;;
11042;SDS011;5574;48.786;10.120;2023-11-19T09:18:00;0.60;;;0.60;;
11042;SDS011;5574;48.786;10.120;2023-11-19T09:20:28;2.33;;;1.50;;
11042;SDS011;5574;48.786;10.120;2023-11-19T09:23:02;2.77;;;1.47;;
11042;SDS011;5574;48.786;10.120;2023-11-19T09:25:29;0.60;;;0.60;;
11042;SDS011;5574;48.786;10.120;2023-11-19T09:27:57;1.90;;;0.97;;
11042;SDS011;5574;48.786;10.120;2023-11-19T09:30:23;2.47;;;0.80;;
11042;SDS011;5574;48.786;10.120;2023-11-19T09:32:50;0.50;;;0.50;;
11042;SDS011;5574;48.786;10.120;2023-11-19T09:35:17;0.40;;;0.40;;
11042;SDS011;5574;48.786;10.120;2023-11-19T09:37:45;0.73;;;0.30;;
11042;SDS011;5574;48.786;10.120;2023-11-19T09:40:11;0.80;;;0.80;;
11042;SDS011;5574;48.786;10.120;2023-11-19T09:42:40;3.03;;;1.10;;
11042;SDS011;5574;48.786;10.120;2023-11-19T09:45:12;1.23;;;0.70;;
11042;SDS011;5574;48.786;10.120;2023-11-19T09:47:40;2.20;;;2.00;;
11042;SDS011;5574;48.786;10.120;2023-11-19T09:50:09;1.57;;;1.57;;
11042;SDS011;5574;48.786;10.120;2023-11-19T09:52:40;1.07;;;0.90;;
11042;SDS011;5574;48.786;10.120;2023-11-19T09:55:08;1.33;;;0.80;;
11042;SDS011;5574;48.786;10.120;2023-11-19T09:57:35;1.13;;;1.00;;
11042;SDS011;5574;48.786;10.120;2023-11-19T10:00:05;1.67;;;1.20;;
11042;SDS011;5574;48.786;10.120;2023-11-19T10:02:35;0.60;;;0.60;;
11042;SDS011;5574;48.786;10.120;2023-11-19T10:05:02;1.13;;;0.70;;
11042;SDS011;5574;48.786;10.120;2023-11-19T10:07:31;2.00;;;0.63;;
11042;SDS011;5574;48.786;10.120;2023-11-19T10:09:58;1.57;;;0.80;;
11042;SDS011;5574;48.786;10.120;2023-11-19T10:12:27;2.63;;;0.97;;
11042;SDS011;5574;48.786;10.120;2023-11-19T10:14:54;1.20;;;0.33;;
11042;SDS011;5574;48.786;10.120;2023-11-19T10:17:26;1.17;;;0.73;;
11042;SDS011;5574;48.786;10.120;2023-11-19T10:19:54;0.70;;;0.60;;
11042;SDS011;5574;48.786;10.120;2023-11-19T10:22:22;1.47;;;1.00;;
11042;SDS011;5574;48.786;10.120;2023-11-19T10:24:49;0.70;;;0.70;;
11042;SDS011;5574;48.786;10.120;2023-11-19T10:27:16;0.40;;;0.40;;
11042;SDS011;5574;48.786;10.120;2023-11-19T10:29:45;1.20;;;0.70;;
11042;SDS011;5574;48.786;10.120;2023-11-19T10:32:13;1.10;;;1.00;;
11042;SDS011;5574;48.786;10.120;2023-11-19T10:34:40;1.03;;;0.60;;
11042;SDS011;5574;48.786;10.120;2023-11-19T10:37:08;0.60;;;0.60;;
11042;SDS011;5574;48.786;10.120;2023-11-19T10:42:20;1.27;;;0.50;;
11042;SDS011;5574;48.786;10.120;2023-11-19T10:44:48;1.13;;;0.60;;
11042;SDS011;5574;48.786;10.120;2023-11-19T10:47:15;0.67;;;0.50;;
11042;SDS011;5574;48.786;10.120;2023-11-19T10:49:44;0.67;;;0.60;;
11042;SDS011;5574;48.786;10.120;2023-11-19T10:52:11;1.03;;;0.53;;
11042;SDS011;5574;48.786;10.120;2023-11-19T10:54:43;0.53;;;0.53;;
11042;SDS011;5574;48.786;10.120;2023-11-19T10:57:14;0.98;;;0.60;;
11042;SDS011;5574;48.786;10.120;2023-11-19T10:59:47;0.40;;;0.40;;
11042;SDS011;5574;48.786;10.120;2023-11-19T11:02:19;0.40;;;0.38;;
11042;SDS011;5574;48.786;10.120;2023-11-19T11:04:50;0.50;;;0.50;;
11042;SDS011;5574;48.786;10.120;2023-11-19T11:07:18;3.30;;;0.90;;
11042;SDS011;5574;48.786;10.120;2023-11-19T11:09:47;1.40;;;0.50;;
11042;SDS011;5574;48.786;10.120;2023-11-19T11:12:15;0.60;;;0.60;;
11042;SDS011;5574;48.786;10.120;2023-11-19T11:14:43;0.47;;;0.47;;
11042;SDS011;5574;48.786;10.120;2023-11-19T11:17:13;0.50;;;0.50;;
11042;SDS011;5574;48.786;10.120;2023-11-19T11:19:43;0.63;;;0.63;;
11042;SDS011;5574;48.786;10.120;2023-11-19T11:22:11;0.70;;;0.60;;
11042;SDS011;5574;48.786;10.120;2023-11-19T11:27:48;0.60;;;0.60;;
11042;SDS011;5574;48.786;10.120;2023-11-19T11:30:34;0.70;;;0.70;;
11042;SDS011;5574;48.786;10.120;2023-11-19T11:33:18;2.53;;;1.50;;
11042;SDS011;5574;48.786;10.120;2023-11-19T11:35:53;0.93;;;0.50;;
11042;SDS011;5574;48.786;10.120;2023-11-19T11:38:27;0.47;;;0.47;;
11042;SDS011;5574;48.786;10.120;2023-11-19T11:43:45;0.50;;;0.50;;
11042;SDS011;5574;48.786;10.120;2023-11-19T11:49:18;0.68;;;0.50;;
11042;SDS011;5574;48.786;10.120;2023-11-19T11:51:57;0.52;;;0.52;;
11042;SDS011;5574;48.786;10.120;2023-11-19T11:54:25;0.25;;;0.25;;
11042;SDS011;5574;48.786;10.120;2023-11-19T11:57:02;0.70;;;0.50;;
11042;SDS011;5574;48.786;10.120;2023-11-19T11:59:36;0.77;;;0.57;;
11042;SDS011;5574;48.786;10.120;2023-11-19T12:02:04;1.00;;;0.50;;
11042;SDS011;5574;48.786;10.120;2023-11-19T12:04:35;0.43;;;0.43;;
11042;SDS011;5574;48.786;10.120;2023-11-19T12:07:03;0.20;;;0.20;;
11042;SDS011;5574;48.786;10.120;2023-11-19T12:09:30;0.60;;;0.47;;
11042;SDS011;5574;48.786;10.120;2023-11-19T12:12:06;0.90;;;0.70;;
11042;SDS011;5574;48.786;10.120;2023-11-19T12:14:59;1.50;;;0.73;;
11042;SDS011;5574;48.786;10.120;2023-11-19T12:17:38;0.90;;;0.73;;
11042;SDS011;5574;48.786;10.120;2023-11-19T12:20:10;0.55;;;0.40;;
11042;SDS011;5574;48.786;10.120;2023-11-19T12:22:37;0.88;;;0.45;;
11042;SDS011;5574;48.786;10.120;2023-11-19T12:25:06;2.00;;;0.80;;
11042;SDS011;5574;48.786;10.120;2023-11-19T12:27:33;0.40;;;0.40;;
11042;SDS011;5574;48.786;10.120;2023-11-19T12:30:00;0.77;;;0.70;;
11042;SDS011;5574;48.786;10.120;2023-11-19T12:32:36;0.85;;;0.60;;
11042;SDS011;5574;48.786;10.120;2023-11-19T12:35:04;0.75;;;0.60;;
11042;SDS011;5574;48.786;10.120;2023-11-19T12:37:33;1.42;;;0.70;;
11042;SDS011;5574;48.786;10.120;2023-11-19T12:40:00;0.80;;;0.80;;
11042;SDS011;5574;48.786;10.120;2023-11-19T12:42:36;1.30;;;0.60;;
11042;SDS011;5574;48.786;10.120;2023-11-19T12:45:04;0.40;;;0.40;;
11042;SDS011;5574;48.786;10.120;2023-11-19T12:47:31;1.63;;;0.60;;
11042;SDS011;5574;48.786;10.120;2023-11-19T12:49:57;0.82;;;0.57;;
11042;SDS011;5574;48.786;10.120;2023-11-19T12:52:24;0.60;;;0.60;;
11042;SDS011;5574;48.786;10.120;2023-11-19T12:54:53;0.73;;;0.60;;
11042;SDS011;5574;48.786;10.120;2023-11-19T12:57:19;0.68;;;0.65;;
11042;SDS011;5574;48.786;10.120;2023-11-19T12:59:55;0.93;;;0.93;;
11042;SDS011;5574;48.786;10.120;2023-11-19T13:02:22;0.85;;;0.85;;
11042;SDS011;5574;48.786;10.120;2023-11-19T13:04:49;1.38;;;0.60;;
11042;SDS011;5574;48.786;10.120;2023-11-19T13:07:20;1.88;;;0.50;;
11042;SDS011;5574;48.786;10.120;2023-11-19T13:09:47;0.70;;;0.40;;
11042;SDS011;5574;48.786;10.120;2023-11-19T13:12:15;1.60;;;0.60;;
11042;SDS011;5574;48.786;10.120;2023-11-19T13:14:42;0.75;;;0.47;;
11042;SDS011;5574;48.786;10.120;2023-11-19T13:17:12;1.35;;;0.50;;
11042;SDS011;5574;48.786;10.120;2023-11-19T13:19:40;0.40;;;0.40;;
11042;SDS011;5574;48.786;10.120;2023-11-19T13:22:06;0.57;;;0.30;;
11042;SDS011;5574;48.786;10.120;2023-11-19T13:24:33;0.73;;;0.40;;
11042;SDS011;5574;48.786;10.120;2023-11-19T13:27:00;0.32;;;0.32;;
11042;SDS011;5574;48.786;10.120;2023-11-19T13:29:28;0.80;;;0.52;;
11042;SDS011;5574;48.786;10.120;2023-11-19T13:31:55;1.38;;;0.88;;
11042;SDS011;5574;48.786;10.120;2023-11-19T13:34:21;0.73;;;0.30;;
11042;SDS011;5574;48.786;10.120;2023-11-19T13:36:48;0.50;;;0.40;;
11042;SDS011;5574;48.786;10.120;2023-11-19T13:39:15;0.63;;;0.60;;
11042;SDS011;5574;48.786;10.120;2023-11-19T13:41:47;0.50;;;0.40;;
11042;SDS011;5574;48.786;10.120;2023-11-19T13:44:15;0.73;;;0.65;;
11042;SDS011;5574;48.786;10.120;2023-11-19T13:46:45;0.65;;;0.40;;
11042;SDS011;5574;48.786;10.120;2023-11-19T13:49:12;1.00;;;0.45;;
11042;SDS011;5574;48.786;10.120;2023-11-19T13:51:38;0.85;;;0.57;;
11042;SDS011;5574;48.786;10.120;2023-11-19T13:54:05;1.20;;;0.60;;
11042;SDS011;5574;48.786;10.120;2023-11-19T13:56:32;0.47;;;0.47;;
11042;SDS011;5574;48.786;10.120;2023-11-19T13:58:58;0.77;;;0.40;;
11042;SDS011;5574;48.786;10.120;2023-11-19T14:01:25;0.50;;;0.30;;
11042;SDS011;5574;48.786;10.120;2023-11-19T14:03:54;2.05;;;0.40;;
11042;SDS011;5574;48.786;10.120;2023-11-19T14:06:20;0.82;;;0.50;;
11042;SDS011;5574;48.786;10.120;2023-11-19T14:08:47;1.75;;;0.38;;
11042;SDS011;5574;48.786;10.120;2023-11-19T14:11:14;0.60;;;0.60;;
11042;SDS011;5574;48.786;10.120;2023-11-19T14:13:41;1.35;;;0.70;;
11042;SDS011;5574;48.786;10.120;2023-11-19T14:16:08;2.33;;;0.45;;
11042;SDS011;5574;48.786;10.120;2023-11-19T14:18:35;0.73;;;0.63;;
11042;SDS011;5574;48.786;10.120;2023-11-19T14:21:03;0.90;;;0.40;;
11042;SDS011;5574;48.786;10.120;2023-11-19T14:23:30;1.10;;;0.50;;
11042;SDS011;5574;48.786;10.120;2023-11-19T14:25:57;0.60;;;0.60;;
11042;SDS011;5574;48.786;10.120;2023-11-19T14:28:24;0.52;;;0.52;;
11042;SDS011;5574;48.786;10.120;2023-11-19T14:30:51;1.35;;;0.47;;
11042;SDS011;5574;48.786;10.120;2023-11-19T14:33:21;0.82;;;0.50;;
11042;SDS011;5574;48.786;10.120;2023-11-19T14:35:48;1.75;;;0.60;;
11042;SDS011;5574;48.786;10.120;2023-11-19T14:38:16;1.57;;;0.30;;
11042;SDS011;5574;48.786;10.120;2023-11-19T14:40:44;0.88;;;0.55;;
11042;SDS011;5574;48.786;10.120;2023-11-19T14:43:10;3.20;;;0.47;;
11042;SDS011;5574;48.786;10.120;2023-11-19T14:45:37;1.23;;;0.47;;
11042;SDS011;5574;48.786;10.120;2023-11-19T14:48:05;1.63;;;0.85;;
11042;SDS011;5574;48.786;10.120;2023-11-19T14:50:31;1.05;;;0.80;;
11042;SDS011;5574;48.786;10.120;2023-11-19T14:52:58;0.75;;;0.40;;
11042;SDS011;5574;48.786;10.120;2023-11-19T14:55:26;1.30;;;0.55;;
11042;SDS011;5574;48.786;10.120;2023-11-19T14:57:53;1.42;;;0.77;;
11042;SDS011;5574;48.786;10.120;2023-11-19T15:00:19;1.08;;;0.80;;
11042;SDS011;5574;48.786;10.120;2023-11-19T15:02:46;1.70;;;0.95;;
11042;SDS011;5574;48.786;10.120;2023-11-19T15:05:13;1.70;;;1.27;;